sensor_id;sensor_type;location;lat;lon;timestamp;temperature;humidity
38428;DHT22;24211;49.980;19.776;2022-11-20T00:01:27;-0.30;99.90
38428;DHT22;24211;49.980;19.776;2022-11-20T00:03:56;-0.30;99.90
38428;DHT22;24211;49.980;19.776;2022-11-20T00:06:26;-0.30;99.90
38428;DHT22;24211;49.980;19.776;2022-11-20T00:08:56;-0.40;99.90
38428;DHT22;24211;49.980;19.776;2022-11-20T00:11:26;-0.40;99.90
38428;DHT22;24211;49.980;19.776;2022-11-20T00:13:56;-0.30;99.90
38428;DHT22;24211;49.980;19.776;2022-11-20T00:16:25;-0.40;99.90
38428;DHT22;24211;49.980;19.776;2022-11-20T00:18:55;-0.40;99.90
38428;DHT22;24211;49.980;19.776;2022-11-20T00:21:24;-0.40;99.90
38428;DHT22;24211;49.980;19.776;2022-11-20T00:23:54;-0.40;99.90
38428;DHT22;24211;49.980;19.776;2022-11-20T00:26:24;-0.40;99.90
38428;DHT22;24211;49.980;19.776;2022-11-20T00:28:56;-0.40;99.90
38428;DHT22;24211;49.980;19.776;2022-11-20T00:31:25;-0.40;99.90
38428;DHT22;24211;49.980;19.776;2022-11-20T00:33:53;-0.50;99.90
38428;DHT22;24211;49.980;19.776;2022-11-20T00:36:25;-0.50;99.90
38428;DHT22;24211;49.980;19.776;2022-11-20T00:38:56;-0.50;99.90
38428;DHT22;24211;49.980;19.776;2022-11-20T00:41:27;-0.50;99.90
38428;DHT22;24211;49.980;19.776;2022-11-20T00:43:56;-0.60;99.90
38428;DHT22;24211;49.980;19.776;2022-11-20T00:46:25;-0.60;99.90
38428;DHT22;24211;49.980;19.776;2022-11-20T00:48:54;-0.60;99.90
38428;DHT22;24211;49.980;19.776;2022-11-20T00:51:24;-0.60;99.90
38428;DHT22;24211;49.980;19.776;2022-11-20T00:53:56;-0.60;99.90
38428;DHT22;24211;49.980;19.776;2022-11-20T00:56:24;-0.60;99.90
38428;DHT22;24211;49.980;19.776;2022-11-20T00:58:51;-0.70;99.90
38428;DHT22;24211;49.980;19.776;2022-11-20T01:01:20;-0.80;99.90
38428;DHT22;24211;49.980;19.776;2022-11-20T01:03:54;-0.80;99.90
38428;DHT22;24211;49.980;19.776;2022-11-20T01:06:28;-0.80;99.90
38428;DHT22;24211;49.980;19.776;2022-11-20T01:09:07;-0.80;99.90
38428;DHT22;24211;49.980;19.776;2022-11-20T01:11:39;-0.80;99.90
38428;DHT22;24211;49.980;19.776;2022-11-20T01:14:14;-0.80;99.90
38428;DHT22;24211;49.980;19.776;2022-11-20T01:16:46;-0.80;99.90
38428;DHT22;24211;49.980;19.776;2022-11-20T01:19:18;-0.80;99.90
38428;DHT22;24211;49.980;19.776;2022-11-20T01:21:50;-0.80;99.90
38428;DHT22;24211;49.980;19.776;2022-11-20T01:24:21;-0.80;99.90
38428;DHT22;24211;49.980;19.776;2022-11-20T01:26:50;-0.80;99.90
38428;DHT22;24211;49.980;19.776;2022-11-20T01:29:23;-0.90;99.90
38428;DHT22;24211;49.980;19.776;2022-11-20T01:31:51;-0.90;99.90
38428;DHT22;24211;49.980;19.776;2022-11-20T01:34:21;-0.90;99.90
38428;DHT22;24211;49.980;19.776;2022-11-20T01:36:49;-0.90;99.90
38428;DHT22;24211;49.980;19.776;2022-11-20T01:39:20;-0.90;99.90
38428;DHT22;24211;49.980;19.776;2022-11-20T01:41:52;-1.00;99.90
38428;DHT22;24211;49.980;19.776;2022-11-20T01:44:59;-1.00;99.90
38428;DHT22;24211;49.980;19.776;2022-11-20T01:50:15;-1.00;99.90
38428;DHT22;24211;49.980;19.776;2022-11-20T01:52:50;-1.00;99.90
38428;DHT22;24211;49.980;19.776;2022-11-20T01:55:26;-1.00;99.90
38428;DHT22;24211;49.980;19.776;2022-11-20T01:57:57;-1.00;99.90
38428;DHT22;24211;49.980;19.776;2022-11-20T02:00:29;-1.10;99.90
38428;DHT22;24211;49.980;19.776;2022-11-20T02:02:59;-1.10;99.90
38428;DHT22;24211;49.980;19.776;2022-11-20T02:05:51;-1.10;99.90
38428;DHT22;24211;49.980;19.776;2022-11-20T02:08:24;-1.10;99.90
38428;DHT22;24211;49.980;19.776;2022-11-20T02:10:52;-1.10;99.90
38428;DHT22;24211;49.980;19.776;2022-11-20T02:13:19;-1.10;99.90
38428;DHT22;24211;49.980;19.776;2022-11-20T02:16:22;-1.20;99.90
38428;DHT22;24211;49.980;19.776;2022-11-20T02:18:51;-1.20;99.90
38428;DHT22;24211;49.980;19.776;2022-11-20T02:24:30;-1.20;99.90
38428;DHT22;24211;49.980;19.776;2022-11-20T02:27:10;-1.30;99.90
38428;DHT22;24211;49.980;19.776;2022-11-20T02:29:59;-1.20;99.90
38428;DHT22;24211;49.980;19.776;2022-11-20T02:32:31;-1.30;99.90
38428;DHT22;24211;49.980;19.776;2022-11-20T02:37:48;-1.30;99.90
38428;DHT22;24211;49.980;19.776;2022-11-20T02:40:17;-1.40;99.90
38428;DHT22;24211;49.980;19.776;2022-11-20T02:42:45;-1.40;99.90
38428;DHT22;24211;49.980;19.776;2022-11-20T02:45:12;-1.40;99.90
38428;DHT22;24211;49.980;19.776;2022-11-20T02:47:39;-1.40;99.90
38428;DHT22;24211;49.980;19.776;2022-11-20T02:50:06;-1.40;99.90
38428;DHT22;24211;49.980;19.776;2022-11-20T02:52:34;-1.40;99.90
38428;DHT22;24211;49.980;19.776;2022-11-20T02:55:01;-1.50;99.90
38428;DHT22;24211;49.980;19.776;2022-11-20T02:57:28;-1.50;99.90
38428;DHT22;24211;49.980;19.776;2022-11-20T02:59:55;-1.50;99.90
38428;DHT22;24211;49.980;19.776;2022-11-20T03:02:23;-1.50;99.90
38428;DHT22;24211;49.980;19.776;2022-11-20T03:04:49;-1.50;99.90
38428;DHT22;24211;49.980;19.776;2022-11-20T03:07:17;-1.50;99.90
38428;DHT22;24211;49.980;19.776;2022-11-20T03:09:44;-1.50;99.90
38428;DHT22;24211;49.980;19.776;2022-11-20T03:12:11;-1.50;99.90
38428;DHT22;24211;49.980;19.776;2022-11-20T03:14:38;-1.50;99.90
38428;DHT22;24211;49.980;19.776;2022-11-20T03:17:06;-1.60;99.90
38428;DHT22;24211;49.980;19.776;2022-11-20T03:19:33;-1.60;99.90
38428;DHT22;24211;49.980;19.776;2022-11-20T03:22:01;-1.60;99.90
38428;DHT22;24211;49.980;19.776;2022-11-20T03:24:28;-1.60;99.90
38428;DHT22;24211;49.980;19.776;2022-11-20T03:26:55;-1.60;99.90
38428;DHT22;24211;49.980;19.776;2022-11-20T03:29:22;-1.60;99.90
38428;DHT22;24211;49.980;19.776;2022-11-20T03:31:49;-1.60;99.90
38428;DHT22;24211;49.980;19.776;2022-11-20T03:34:16;-1.60;99.90
38428;DHT22;24211;49.980;19.776;2022-11-20T03:36:44;-1.60;99.90
38428;DHT22;24211;49.980;19.776;2022-11-20T03:39:11;-1.60;99.90
38428;DHT22;24211;49.980;19.776;2022-11-20T03:41:40;-1.70;99.90
38428;DHT22;24211;49.980;19.776;2022-11-20T03:44:10;-1.60;99.90
38428;DHT22;24211;49.980;19.776;2022-11-20T03:46:38;-1.70;99.90
38428;DHT22;24211;49.980;19.776;2022-11-20T03:49:06;-1.70;99.90
38428;DHT22;24211;49.980;19.776;2022-11-20T03:51:35;-1.70;99.90
38428;DHT22;24211;49.980;19.776;2022-11-20T03:54:07;-1.70;99.90
38428;DHT22;24211;49.980;19.776;2022-11-20T03:56:37;-1.60;99.90
38428;DHT22;24211;49.980;19.776;2022-11-20T03:59:05;-1.70;99.90
38428;DHT22;24211;49.980;19.776;2022-11-20T04:01:35;-1.60;99.90
38428;DHT22;24211;49.980;19.776;2022-11-20T04:04:04;-1.70;99.90
38428;DHT22;24211;49.980;19.776;2022-11-20T04:06:36;-1.70;99.90
38428;DHT22;24211;49.980;19.776;2022-11-20T04:09:05;-1.70;99.90
38428;DHT22;24211;49.980;19.776;2022-11-20T04:11:35;-1.70;99.90
38428;DHT22;24211;49.980;19.776;2022-11-20T04:14:06;-1.70;99.90
38428;DHT22;24211;49.980;19.776;2022-11-20T04:16:38;-1.70;99.90
38428;DHT22;24211;49.980;19.776;2022-11-20T04:19:09;-1.80;99.90
38428;DHT22;24211;49.980;19.776;2022-11-20T04:21:38;-1.70;99.90
38428;DHT22;24211;49.980;19.776;2022-11-20T04:24:06;-1.70;99.90
38428;DHT22;24211;49.980;19.776;2022-11-20T04:26:34;-1.70;99.90
38428;DHT22;24211;49.980;19.776;2022-11-20T04:29:01;-1.70;99.90
38428;DHT22;24211;49.980;19.776;2022-11-20T04:31:32;-1.70;99.90
38428;DHT22;24211;49.980;19.776;2022-11-20T04:34:05;-1.60;99.90
38428;DHT22;24211;49.980;19.776;2022-11-20T04:36:34;-1.70;99.90
38428;DHT22;24211;49.980;19.776;2022-11-20T04:39:04;-1.70;99.90
38428;DHT22;24211;49.980;19.776;2022-11-20T04:41:35;-1.70;99.90
38428;DHT22;24211;49.980;19.776;2022-11-20T04:44:04;-1.70;99.90
38428;DHT22;24211;49.980;19.776;2022-11-20T04:46:38;-1.70;99.90
38428;DHT22;24211;49.980;19.776;2022-11-20T04:49:10;-1.60;99.90
38428;DHT22;24211;49.980;19.776;2022-11-20T04:51:38;-1.60;99.90
38428;DHT22;24211;49.980;19.776;2022-11-20T04:54:05;-1.60;99.90
38428;DHT22;24211;49.980;19.776;2022-11-20T04:56:32;-1.70;99.90
38428;DHT22;24211;49.980;19.776;2022-11-20T04:59:00;-1.60;99.90
38428;DHT22;24211;49.980;19.776;2022-11-20T05:01:28;-1.70;99.90
38428;DHT22;24211;49.980;19.776;2022-11-20T05:03:56;-1.60;99.90
38428;DHT22;24211;49.980;19.776;2022-11-20T05:06:23;-1.60;99.90
38428;DHT22;24211;49.980;19.776;2022-11-20T05:08:50;-1.60;99.90
38428;DHT22;24211;49.980;19.776;2022-11-20T05:11:19;-1.60;99.90
38428;DHT22;24211;49.980;19.776;2022-11-20T05:13:48;-1.60;99.90
38428;DHT22;24211;49.980;19.776;2022-11-20T05:16:22;-1.60;99.90
38428;DHT22;24211;49.980;19.776;2022-11-20T05:18:52;-1.60;99.90
38428;DHT22;24211;49.980;19.776;2022-11-20T05:21:21;-1.60;99.90
38428;DHT22;24211;49.980;19.776;2022-11-20T05:23:49;-1.60;99.90
38428;DHT22;24211;49.980;19.776;2022-11-20T05:26:19;-1.60;99.90
38428;DHT22;24211;49.980;19.776;2022-11-20T05:28:49;-1.60;99.90
38428;DHT22;24211;49.980;19.776;2022-11-20T05:31:23;-1.60;99.90
38428;DHT22;24211;49.980;19.776;2022-11-20T05:33:55;-1.60;99.90
38428;DHT22;24211;49.980;19.776;2022-11-20T05:36:24;-1.60;99.90
38428;DHT22;24211;49.980;19.776;2022-11-20T05:38:51;-1.60;99.90
38428;DHT22;24211;49.980;19.776;2022-11-20T05:41:24;-1.60;99.90
38428;DHT22;24211;49.980;19.776;2022-11-20T05:43:51;-1.60;99.90
38428;DHT22;24211;49.980;19.776;2022-11-20T05:46:20;-1.70;99.90
38428;DHT22;24211;49.980;19.776;2022-11-20T05:48:54;-1.70;99.90
38428;DHT22;24211;49.980;19.776;2022-11-20T05:51:22;-1.60;99.90
38428;DHT22;24211;49.980;19.776;2022-11-20T05:53:50;-1.60;99.90
38428;DHT22;24211;49.980;19.776;2022-11-20T05:56:21;-1.60;99.90
38428;DHT22;24211;49.980;19.776;2022-11-20T05:58:49;-1.60;99.90
38428;DHT22;24211;49.980;19.776;2022-11-20T06:01:24;-1.60;99.90
38428;DHT22;24211;49.980;19.776;2022-11-20T06:03:53;-1.60;99.90
38428;DHT22;24211;49.980;19.776;2022-11-20T06:06:21;-1.60;99.90
38428;DHT22;24211;49.980;19.776;2022-11-20T06:08:49;-1.60;99.90
38428;DHT22;24211;49.980;19.776;2022-11-20T06:11:17;-1.60;99.90
38428;DHT22;24211;49.980;19.776;2022-11-20T06:13:45;-1.60;99.90
38428;DHT22;24211;49.980;19.776;2022-11-20T06:16:15;-1.60;99.90
38428;DHT22;24211;49.980;19.776;2022-11-20T06:18:45;-1.60;99.90
38428;DHT22;24211;49.980;19.776;2022-11-20T06:21:15;-1.60;99.90
38428;DHT22;24211;49.980;19.776;2022-11-20T06:23:44;-1.60;99.90
38428;DHT22;24211;49.980;19.776;2022-11-20T06:26:17;-1.60;99.90
38428;DHT22;24211;49.980;19.776;2022-11-20T06:28:46;-1.50;99.90
38428;DHT22;24211;49.980;19.776;2022-11-20T06:31:17;-1.40;99.90
38428;DHT22;24211;49.980;19.776;2022-11-20T06:33:46;-1.40;99.90
38428;DHT22;24211;49.980;19.776;2022-11-20T06:36:15;-1.50;99.90
38428;DHT22;24211;49.980;19.776;2022-11-20T06:38:44;-1.50;99.90
38428;DHT22;24211;49.980;19.776;2022-11-20T06:41:15;-1.50;99.90
38428;DHT22;24211;49.980;19.776;2022-11-20T06:43:43;-1.50;99.90
38428;DHT22;24211;49.980;19.776;2022-11-20T06:46:12;-1.50;99.90
38428;DHT22;24211;49.980;19.776;2022-11-20T06:48:40;-1.60;99.90
38428;DHT22;24211;49.980;19.776;2022-11-20T06:51:08;-1.60;99.90
38428;DHT22;24211;49.980;19.776;2022-11-20T06:53:36;-1.60;99.90
38428;DHT22;24211;49.980;19.776;2022-11-20T06:56:04;-1.60;99.90
38428;DHT22;24211;49.980;19.776;2022-11-20T06:58:34;-1.60;99.90
38428;DHT22;24211;49.980;19.776;2022-11-20T07:01:08;-1.60;99.90
38428;DHT22;24211;49.980;19.776;2022-11-20T07:03:39;-1.60;99.90
38428;DHT22;24211;49.980;19.776;2022-11-20T07:06:08;-1.60;99.90
38428;DHT22;24211;49.980;19.776;2022-11-20T07:08:35;-1.60;99.90
38428;DHT22;24211;49.980;19.776;2022-11-20T07:11:05;-1.50;99.90
38428;DHT22;24211;49.980;19.776;2022-11-20T07:13:33;-1.50;99.90
38428;DHT22;24211;49.980;19.776;2022-11-20T07:16:03;-1.50;99.90
38428;DHT22;24211;49.980;19.776;2022-11-20T07:18:32;-1.50;99.90
38428;DHT22;24211;49.980;19.776;2022-11-20T07:21:01;-1.50;99.90
38428;DHT22;24211;49.980;19.776;2022-11-20T07:23:29;-1.40;99.90
38428;DHT22;24211;49.980;19.776;2022-11-20T07:25:56;-1.50;99.90
38428;DHT22;24211;49.980;19.776;2022-11-20T07:28:24;-1.40;99.90
38428;DHT22;24211;49.980;19.776;2022-11-20T07:30:52;-1.40;99.90
38428;DHT22;24211;49.980;19.776;2022-11-20T07:33:20;-1.40;99.90
38428;DHT22;24211;49.980;19.776;2022-11-20T07:35:47;-1.40;99.90
38428;DHT22;24211;49.980;19.776;2022-11-20T07:38:15;-1.40;99.90
38428;DHT22;24211;49.980;19.776;2022-11-20T07:40:42;-1.40;99.90
38428;DHT22;24211;49.980;19.776;2022-11-20T07:43:09;-1.40;99.90
38428;DHT22;24211;49.980;19.776;2022-11-20T07:45:37;-1.30;99.90
38428;DHT22;24211;49.980;19.776;2022-11-20T07:48:04;-1.30;99.90
38428;DHT22;24211;49.980;19.776;2022-11-20T07:50:31;-1.30;99.90
38428;DHT22;24211;49.980;19.776;2022-11-20T07:53:05;-1.30;99.90
38428;DHT22;24211;49.980;19.776;2022-11-20T07:55:33;-1.20;99.90
38428;DHT22;24211;49.980;19.776;2022-11-20T07:58:00;-1.20;99.90
38428;DHT22;24211;49.980;19.776;2022-11-20T08:00:28;-1.20;99.90
38428;DHT22;24211;49.980;19.776;2022-11-20T08:02:55;-1.20;99.90
38428;DHT22;24211;49.980;19.776;2022-11-20T08:05:23;-1.20;99.90
38428;DHT22;24211;49.980;19.776;2022-11-20T08:07:50;-1.20;99.90
38428;DHT22;24211;49.980;19.776;2022-11-20T08:10:17;-1.10;99.90
38428;DHT22;24211;49.980;19.776;2022-11-20T08:12:49;-1.10;99.90
38428;DHT22;24211;49.980;19.776;2022-11-20T08:15:38;-1.10;99.90
38428;DHT22;24211;49.980;19.776;2022-11-20T08:18:10;-1.20;99.90
38428;DHT22;24211;49.980;19.776;2022-11-20T08:21:05;-1.20;99.90
38428;DHT22;24211;49.980;19.776;2022-11-20T08:23:32;-1.20;99.90
38428;DHT22;24211;49.980;19.776;2022-11-20T08:25:59;-1.50;99.90
38428;DHT22;24211;49.980;19.776;2022-11-20T08:28:26;-1.80;99.90
38428;DHT22;24211;49.980;19.776;2022-11-20T08:30:58;-1.80;99.90
38428;DHT22;24211;49.980;19.776;2022-11-20T08:33:27;-1.50;99.90
38428;DHT22;24211;49.980;19.776;2022-11-20T08:35:59;-1.40;99.90
38428;DHT22;24211;49.980;19.776;2022-11-20T08:38:28;-1.40;99.90
38428;DHT22;24211;49.980;19.776;2022-11-20T08:40:59;-1.20;99.90
38428;DHT22;24211;49.980;19.776;2022-11-20T08:43:47;-1.20;99.90
38428;DHT22;24211;49.980;19.776;2022-11-20T08:46:14;-1.10;99.90
38428;DHT22;24211;49.980;19.776;2022-11-20T08:48:42;-1.00;99.90
38428;DHT22;24211;49.980;19.776;2022-11-20T08:51:10;-0.90;99.90
38428;DHT22;24211;49.980;19.776;2022-11-20T08:53:39;-0.80;99.90
38428;DHT22;24211;49.980;19.776;2022-11-20T08:56:07;-0.80;99.90
38428;DHT22;24211;49.980;19.776;2022-11-20T08:58:34;-0.70;99.90
38428;DHT22;24211;49.980;19.776;2022-11-20T09:01:22;-0.70;99.90
38428;DHT22;24211;49.980;19.776;2022-11-20T09:03:50;-0.60;99.90
38428;DHT22;24211;49.980;19.776;2022-11-20T09:06:17;-0.50;99.90
38428;DHT22;24211;49.980;19.776;2022-11-20T09:08:45;-0.50;99.90
38428;DHT22;24211;49.980;19.776;2022-11-20T09:11:12;-0.50;99.90
38428;DHT22;24211;49.980;19.776;2022-11-20T09:13:39;-0.40;99.90
38428;DHT22;24211;49.980;19.776;2022-11-20T09:16:07;-0.30;99.90
38428;DHT22;24211;49.980;19.776;2022-11-20T09:18:35;-0.30;99.90
38428;DHT22;24211;49.980;19.776;2022-11-20T09:21:11;-0.30;99.90
38428;DHT22;24211;49.980;19.776;2022-11-20T09:23:39;-0.20;99.90
38428;DHT22;24211;49.980;19.776;2022-11-20T09:26:13;-0.20;99.90
38428;DHT22;24211;49.980;19.776;2022-11-20T09:28:40;-0.10;99.90
38428;DHT22;24211;49.980;19.776;2022-11-20T09:31:09;-0.10;99.90
38428;DHT22;24211;49.980;19.776;2022-11-20T09:33:50;0.00;99.90
38428;DHT22;24211;49.980;19.776;2022-11-20T09:36:18;0.00;99.90
38428;DHT22;24211;49.980;19.776;2022-11-20T09:38:46;0.00;99.90
38428;DHT22;24211;49.980;19.776;2022-11-20T09:47:54;0.10;99.90
38428;DHT22;24211;49.980;19.776;2022-11-20T09:55:50;0.20;99.90
38428;DHT22;24211;49.980;19.776;2022-11-20T09:58:51;0.30;99.90
38428;DHT22;24211;49.980;19.776;2022-11-20T10:01:23;0.30;99.90
38428;DHT22;24211;49.980;19.776;2022-11-20T10:04:01;0.40;99.90
38428;DHT22;24211;49.980;19.776;2022-11-20T10:06:39;0.40;99.90
38428;DHT22;24211;49.980;19.776;2022-11-20T10:09:36;0.50;99.90
38428;DHT22;24211;49.980;19.776;2022-11-20T10:12:16;0.50;99.90
38428;DHT22;24211;49.980;19.776;2022-11-20T10:15:12;0.60;99.90
38428;DHT22;24211;49.980;19.776;2022-11-20T10:21:18;0.60;99.90
38428;DHT22;24211;49.980;19.776;2022-11-20T10:29:17;0.70;99.90
38428;DHT22;24211;49.980;19.776;2022-11-20T10:31:54;0.70;99.90
38428;DHT22;24211;49.980;19.776;2022-11-20T10:34:32;0.80;99.90
38428;DHT22;24211;49.980;19.776;2022-11-20T10:37:12;0.80;99.90
38428;DHT22;24211;49.980;19.776;2022-11-20T10:40:02;0.80;99.90
38428;DHT22;24211;49.980;19.776;2022-11-20T10:42:43;0.80;99.90
38428;DHT22;24211;49.980;19.776;2022-11-20T10:45:53;0.90;99.90
38428;DHT22;24211;49.980;19.776;2022-11-20T10:48:33;1.00;99.90
38428;DHT22;24211;49.980;19.776;2022-11-20T10:58:03;1.00;99.90
38428;DHT22;24211;49.980;19.776;2022-11-20T11:00:17;1.10;99.90
38428;DHT22;24211;49.980;19.776;2022-11-20T11:02:49;1.10;99.90
38428;DHT22;24211;49.980;19.776;2022-11-20T11:08:38;1.20;99.90
38428;DHT22;24211;49.980;19.776;2022-11-20T11:14:05;1.20;99.90
38428;DHT22;24211;49.980;19.776;2022-11-20T11:16:34;1.20;99.90
38428;DHT22;24211;49.980;19.776;2022-11-20T11:19:12;1.30;99.90
38428;DHT22;24211;49.980;19.776;2022-11-20T11:21:55;1.30;99.90
38428;DHT22;24211;49.980;19.776;2022-11-20T11:27:13;1.40;99.90
38428;DHT22;24211;49.980;19.776;2022-11-20T11:29:45;1.40;99.90
38428;DHT22;24211;49.980;19.776;2022-11-20T11:32:15;1.40;99.90
38428;DHT22;24211;49.980;19.776;2022-11-20T11:34:45;1.40;99.90
38428;DHT22;24211;49.980;19.776;2022-11-20T11:37:19;1.50;99.90
38428;DHT22;24211;49.980;19.776;2022-11-20T11:39:50;1.50;99.90
38428;DHT22;24211;49.980;19.776;2022-11-20T11:42:43;1.50;99.90
38428;DHT22;24211;49.980;19.776;2022-11-20T11:45:15;1.50;99.90
38428;DHT22;24211;49.980;19.776;2022-11-20T11:47:46;1.60;99.90
38428;DHT22;24211;49.980;19.776;2022-11-20T11:50:18;1.60;99.90
38428;DHT22;24211;49.980;19.776;2022-11-20T11:52:54;1.60;99.90
38428;DHT22;24211;49.980;19.776;2022-11-20T11:55:58;1.60;99.90
38428;DHT22;24211;49.980;19.776;2022-11-20T11:58:50;1.70;99.90
38428;DHT22;24211;49.980;19.776;2022-11-20T12:04:40;1.70;99.90
38428;DHT22;24211;49.980;19.776;2022-11-20T12:07:22;1.70;99.90
38428;DHT22;24211;49.980;19.776;2022-11-20T12:16:02;1.80;99.90
38428;DHT22;24211;49.980;19.776;2022-11-20T12:18:30;1.80;99.90
38428;DHT22;24211;49.980;19.776;2022-11-20T12:21:18;1.80;99.90
38428;DHT22;24211;49.980;19.776;2022-11-20T12:23:59;1.80;99.90
38428;DHT22;24211;49.980;19.776;2022-11-20T12:32:01;2.00;99.90
38428;DHT22;24211;49.980;19.776;2022-11-20T12:34:34;2.00;99.90
38428;DHT22;24211;49.980;19.776;2022-11-20T12:37:17;2.00;99.90
38428;DHT22;24211;49.980;19.776;2022-11-20T12:39:49;2.00;99.90
38428;DHT22;24211;49.980;19.776;2022-11-20T12:42:30;2.00;99.90
38428;DHT22;24211;49.980;19.776;2022-11-20T12:46:00;2.00;99.90
38428;DHT22;24211;49.980;19.776;2022-11-20T12:49:15;2.10;99.90
38428;DHT22;24211;49.980;19.776;2022-11-20T13:00:58;2.20;99.90
38428;DHT22;24211;49.980;19.776;2022-11-20T13:03:43;2.20;99.90
38428;DHT22;24211;49.980;19.776;2022-11-20T13:06:19;2.20;99.90
38428;DHT22;24211;49.980;19.776;2022-11-20T13:08:54;2.20;99.90
38428;DHT22;24211;49.980;19.776;2022-11-20T13:11:42;2.30;99.90
38428;DHT22;24211;49.980;19.776;2022-11-20T13:17:21;2.30;99.90
38428;DHT22;24211;49.980;19.776;2022-11-20T13:19:59;2.20;99.90
38428;DHT22;24211;49.980;19.776;2022-11-20T13:22:27;2.10;99.90
38428;DHT22;24211;49.980;19.776;2022-11-20T13:24:56;1.90;99.90
38428;DHT22;24211;49.980;19.776;2022-11-20T13:27:24;2.00;99.90
38428;DHT22;24211;49.980;19.776;2022-11-20T13:30:12;1.80;99.90
38428;DHT22;24211;49.980;19.776;2022-11-20T13:35:33;2.20;99.90
38428;DHT22;24211;49.980;19.776;2022-11-20T13:38:09;2.20;99.90
38428;DHT22;24211;49.980;19.776;2022-11-20T13:40:53;2.30;99.90
38428;DHT22;24211;49.980;19.776;2022-11-20T13:43:37;2.30;99.90
38428;DHT22;24211;49.980;19.776;2022-11-20T13:46:09;2.40;99.90
38428;DHT22;24211;49.980;19.776;2022-11-20T13:48:41;2.40;99.90
38428;DHT22;24211;49.980;19.776;2022-11-20T13:51:37;2.40;99.90
38428;DHT22;24211;49.980;19.776;2022-11-20T13:54:43;2.40;99.90
38428;DHT22;24211;49.980;19.776;2022-11-20T13:57:47;2.40;99.90
38428;DHT22;24211;49.980;19.776;2022-11-20T14:00:23;2.40;99.90
38428;DHT22;24211;49.980;19.776;2022-11-20T14:03:08;2.40;99.90
38428;DHT22;24211;49.980;19.776;2022-11-20T14:05:54;2.40;99.90
38428;DHT22;24211;49.980;19.776;2022-11-20T14:08:33;2.40;99.90
38428;DHT22;24211;49.980;19.776;2022-11-20T14:14:10;2.40;99.90
38428;DHT22;24211;49.980;19.776;2022-11-20T14:16:42;2.40;99.90
38428;DHT22;24211;49.980;19.776;2022-11-20T14:22:06;2.40;99.90
38428;DHT22;24211;49.980;19.776;2022-11-20T14:24:44;2.40;99.90
38428;DHT22;24211;49.980;19.776;2022-11-20T14:27:18;2.40;99.90
38428;DHT22;24211;49.980;19.776;2022-11-20T14:29:49;2.40;99.90
38428;DHT22;24211;49.980;19.776;2022-11-20T14:32:19;2.40;99.90
38428;DHT22;24211;49.980;19.776;2022-11-20T14:34:49;2.40;99.90
38428;DHT22;24211;49.980;19.776;2022-11-20T14:37:24;2.40;99.90
38428;DHT22;24211;49.980;19.776;2022-11-20T14:39:59;2.40;99.90
38428;DHT22;24211;49.980;19.776;2022-11-20T14:42:29;2.40;99.90
38428;DHT22;24211;49.980;19.776;2022-11-20T14:44:59;2.40;99.90
38428;DHT22;24211;49.980;19.776;2022-11-20T14:47:29;2.40;99.90
38428;DHT22;24211;49.980;19.776;2022-11-20T14:49:58;2.40;99.90
38428;DHT22;24211;49.980;19.776;2022-11-20T14:52:34;2.40;99.90
38428;DHT22;24211;49.980;19.776;2022-11-20T14:55:01;2.40;99.90
38428;DHT22;24211;49.980;19.776;2022-11-20T14:57:31;2.40;99.90
38428;DHT22;24211;49.980;19.776;2022-11-20T15:00:19;2.40;99.90
38428;DHT22;24211;49.980;19.776;2022-11-20T15:02:50;2.40;99.90
38428;DHT22;24211;49.980;19.776;2022-11-20T15:05:21;2.40;99.90
38428;DHT22;24211;49.980;19.776;2022-11-20T15:08:05;2.40;99.90
38428;DHT22;24211;49.980;19.776;2022-11-20T15:10:34;2.40;99.90
38428;DHT22;24211;49.980;19.776;2022-11-20T15:13:19;2.40;99.90
38428;DHT22;24211;49.980;19.776;2022-11-20T15:15:57;2.40;99.90
38428;DHT22;24211;49.980;19.776;2022-11-20T15:18:31;2.30;99.90
38428;DHT22;24211;49.980;19.776;2022-11-20T15:21:08;2.40;99.90
38428;DHT22;24211;49.980;19.776;2022-11-20T15:23:38;2.40;99.90
38428;DHT22;24211;49.980;19.776;2022-11-20T15:26:09;2.40;99.90
38428;DHT22;24211;49.980;19.776;2022-11-20T15:28:47;2.30;99.90
38428;DHT22;24211;49.980;19.776;2022-11-20T15:31:19;2.30;99.90
38428;DHT22;24211;49.980;19.776;2022-11-20T15:33:49;2.30;99.90
38428;DHT22;24211;49.980;19.776;2022-11-20T15:36:16;2.40;99.90
38428;DHT22;24211;49.980;19.776;2022-11-20T15:38:43;2.30;99.90
38428;DHT22;24211;49.980;19.776;2022-11-20T15:41:11;2.30;99.90
38428;DHT22;24211;49.980;19.776;2022-11-20T15:43:38;2.30;99.90
38428;DHT22;24211;49.980;19.776;2022-11-20T15:46:11;2.30;99.90
38428;DHT22;24211;49.980;19.776;2022-11-20T15:48:45;2.30;99.90
38428;DHT22;24211;49.980;19.776;2022-11-20T15:51:26;2.30;99.90
38428;DHT22;24211;49.980;19.776;2022-11-20T15:53:56;2.30;99.90
38428;DHT22;24211;49.980;19.776;2022-11-20T15:56:24;2.30;99.90
38428;DHT22;24211;49.980;19.776;2022-11-20T15:58:52;2.30;99.90
38428;DHT22;24211;49.980;19.776;2022-11-20T16:01:21;2.30;99.90
38428;DHT22;24211;49.980;19.776;2022-11-20T16:03:49;2.30;99.90
38428;DHT22;24211;49.980;19.776;2022-11-20T16:06:16;2.30;99.90
38428;DHT22;24211;49.980;19.776;2022-11-20T16:08:43;2.30;99.90
38428;DHT22;24211;49.980;19.776;2022-11-20T16:11:13;2.30;99.90
38428;DHT22;24211;49.980;19.776;2022-11-20T16:13:42;2.30;99.90
38428;DHT22;24211;49.980;19.776;2022-11-20T16:16:31;2.30;99.90
38428;DHT22;24211;49.980;19.776;2022-11-20T16:19:01;2.30;99.90
38428;DHT22;24211;49.980;19.776;2022-11-20T16:21:28;2.30;99.90
38428;DHT22;24211;49.980;19.776;2022-11-20T16:24:04;2.30;99.90
38428;DHT22;24211;49.980;19.776;2022-11-20T16:26:33;2.30;99.90
38428;DHT22;24211;49.980;19.776;2022-11-20T16:29:01;2.30;99.90
38428;DHT22;24211;49.980;19.776;2022-11-20T16:31:31;2.40;99.90
38428;DHT22;24211;49.980;19.776;2022-11-20T16:34:02;2.40;99.90
38428;DHT22;24211;49.980;19.776;2022-11-20T16:36:39;2.40;99.90
38428;DHT22;24211;49.980;19.776;2022-11-20T16:39:09;2.40;99.90
38428;DHT22;24211;49.980;19.776;2022-11-20T16:41:36;2.40;99.90
38428;DHT22;24211;49.980;19.776;2022-11-20T16:44:08;2.40;99.90
38428;DHT22;24211;49.980;19.776;2022-11-20T16:46:37;2.40;99.90
38428;DHT22;24211;49.980;19.776;2022-11-20T16:49:11;2.40;99.90
38428;DHT22;24211;49.980;19.776;2022-11-20T16:51:40;2.50;99.90
38428;DHT22;24211;49.980;19.776;2022-11-20T16:54:09;2.40;99.90
38428;DHT22;24211;49.980;19.776;2022-11-20T16:56:38;2.40;99.90
38428;DHT22;24211;49.980;19.776;2022-11-20T16:59:06;2.50;99.90
38428;DHT22;24211;49.980;19.776;2022-11-20T17:01:33;2.50;99.90
38428;DHT22;24211;49.980;19.776;2022-11-20T17:04:06;2.50;99.90
38428;DHT22;24211;49.980;19.776;2022-11-20T17:06:35;2.50;99.90
38428;DHT22;24211;49.980;19.776;2022-11-20T17:09:05;2.40;99.90
38428;DHT22;24211;49.980;19.776;2022-11-20T17:11:35;2.50;99.90
38428;DHT22;24211;49.980;19.776;2022-11-20T17:14:03;2.50;99.90
38428;DHT22;24211;49.980;19.776;2022-11-20T17:16:34;2.50;99.90